Terminal Aerodrome Forecast
Issued by NWS

Home | Current Version | Previous Version | Text Only | Print | Product List | Glossary On
Versions: 1 2 3 4 5 6 7 8 9 10 11 12 13 14 15 16 17 18 19 20 21 22 23
000
FTUS43 KPAH 190520
TAFCGI
TAF
KCGI 190520Z 1906/2006 00000KT 3SM BR BKN020
      TEMPO 1906/1907 SCT020
     FM190700 00000KT 2SM BR BKN020
     FM190900 00000KT 1 1/2SM BR BKN020
     FM191100 00000KT 3/4SM BR SCT008
     FM191400 21006KT P6SM SCT025=

USA.gov is the U.S. government's official web portal to all federal, state and local government web resources and services.